sensor_id;sensor_type;location;lat;lon;timestamp;P1;durP1;ratioP1;P2;durP2;ratioP2
6999;SDS011;3540;53.242;10.408;2022-12-05T00:01:57;54.47;;;28.27;;
6999;SDS011;3540;53.242;10.408;2022-12-05T00:04:24;64.40;;;28.87;;
6999;SDS011;3540;53.242;10.408;2022-12-05T00:06:49;54.17;;;27.23;;
6999;SDS011;3540;53.242;10.408;2022-12-05T00:09:15;60.13;;;28.53;;
6999;SDS011;3540;53.242;10.408;2022-12-05T00:11:41;54.00;;;28.43;;
6999;SDS011;3540;53.242;10.408;2022-12-05T00:14:09;56.53;;;26.70;;
6999;SDS011;3540;53.242;10.408;2022-12-05T00:16:37;59.40;;;29.87;;
6999;SDS011;3540;53.242;10.408;2022-12-05T00:19:04;59.70;;;28.97;;
6999;SDS011;3540;53.242;10.408;2022-12-05T00:21:32;61.40;;;28.97;;
6999;SDS011;3540;53.242;10.408;2022-12-05T00:23:59;54.97;;;29.17;;
6999;SDS011;3540;53.242;10.408;2022-12-05T00:26:26;51.77;;;27.17;;
6999;SDS011;3540;53.242;10.408;2022-12-05T00:28:52;59.67;;;28.90;;
6999;SDS011;3540;53.242;10.408;2022-12-05T00:31:20;55.83;;;28.33;;
6999;SDS011;3540;53.242;10.408;2022-12-05T00:33:47;61.07;;;28.03;;
6999;SDS011;3540;53.242;10.408;2022-12-05T00:36:18;51.10;;;26.43;;
6999;SDS011;3540;53.242;10.408;2022-12-05T00:38:48;52.17;;;27.43;;
6999;SDS011;3540;53.242;10.408;2022-12-05T00:41:15;59.20;;;29.03;;
6999;SDS011;3540;53.242;10.408;2022-12-05T00:43:43;55.87;;;27.80;;
6999;SDS011;3540;53.242;10.408;2022-12-05T00:46:13;57.47;;;27.73;;
6999;SDS011;3540;53.242;10.408;2022-12-05T00:48:40;58.87;;;27.87;;
6999;SDS011;3540;53.242;10.408;2022-12-05T00:51:07;56.03;;;27.87;;
6999;SDS011;3540;53.242;10.408;2022-12-05T00:53:36;55.47;;;28.37;;
6999;SDS011;3540;53.242;10.408;2022-12-05T00:56:06;60.43;;;28.40;;
6999;SDS011;3540;53.242;10.408;2022-12-05T00:58:33;55.20;;;29.17;;
6999;SDS011;3540;53.242;10.408;2022-12-05T01:04:05;55.47;;;28.07;;
6999;SDS011;3540;53.242;10.408;2022-12-05T01:06:34;55.60;;;26.60;;
6999;SDS011;3540;53.242;10.408;2022-12-05T01:09:00;55.53;;;27.53;;
6999;SDS011;3540;53.242;10.408;2022-12-05T01:11:26;54.13;;;27.00;;
6999;SDS011;3540;53.242;10.408;2022-12-05T01:13:52;55.67;;;27.73;;
6999;SDS011;3540;53.242;10.408;2022-12-05T01:16:20;53.20;;;28.03;;
6999;SDS011;3540;53.242;10.408;2022-12-05T01:18:48;52.27;;;27.37;;
6999;SDS011;3540;53.242;10.408;2022-12-05T01:21:14;51.77;;;26.57;;
6999;SDS011;3540;53.242;10.408;2022-12-05T01:23:40;51.17;;;27.93;;
6999;SDS011;3540;53.242;10.408;2022-12-05T01:26:07;53.40;;;28.80;;
6999;SDS011;3540;53.242;10.408;2022-12-05T01:28:34;48.03;;;26.67;;
6999;SDS011;3540;53.242;10.408;2022-12-05T01:31:34;51.93;;;26.70;;
6999;SDS011;3540;53.242;10.408;2022-12-05T01:33:54;52.47;;;27.70;;
6999;SDS011;3540;53.242;10.408;2022-12-05T01:36:21;48.13;;;26.20;;
6999;SDS011;3540;53.242;10.408;2022-12-05T01:38:48;52.23;;;27.57;;
6999;SDS011;3540;53.242;10.408;2022-12-05T01:41:16;50.13;;;26.87;;
6999;SDS011;3540;53.242;10.408;2022-12-05T01:44:07;51.27;;;26.83;;
6999;SDS011;3540;53.242;10.408;2022-12-05T01:46:52;49.90;;;25.70;;
6999;SDS011;3540;53.242;10.408;2022-12-05T01:49:27;49.23;;;26.27;;
6999;SDS011;3540;53.242;10.408;2022-12-05T01:52:00;49.13;;;25.10;;
6999;SDS011;3540;53.242;10.408;2022-12-05T01:54:48;49.23;;;25.77;;
6999;SDS011;3540;53.242;10.408;2022-12-05T01:57:16;46.30;;;26.50;;
6999;SDS011;3540;53.242;10.408;2022-12-05T01:59:45;47.93;;;26.67;;
6999;SDS011;3540;53.242;10.408;2022-12-05T02:02:13;50.47;;;26.70;;
6999;SDS011;3540;53.242;10.408;2022-12-05T02:05:23;49.83;;;26.03;;
6999;SDS011;3540;53.242;10.408;2022-12-05T02:07:32;45.80;;;25.83;;
6999;SDS011;3540;53.242;10.408;2022-12-05T02:09:58;47.73;;;25.97;;
6999;SDS011;3540;53.242;10.408;2022-12-05T02:12:24;48.30;;;25.77;;
6999;SDS011;3540;53.242;10.408;2022-12-05T02:14:55;46.53;;;25.70;;
6999;SDS011;3540;53.242;10.408;2022-12-05T02:17:52;49.30;;;26.10;;
6999;SDS011;3540;53.242;10.408;2022-12-05T02:37:24;46.53;;;25.37;;
6999;SDS011;3540;53.242;10.408;2022-12-05T02:40:02;46.90;;;26.00;;
6999;SDS011;3540;53.242;10.408;2022-12-05T02:45:11;44.97;;;25.20;;
6999;SDS011;3540;53.242;10.408;2022-12-05T02:47:41;47.63;;;26.43;;
6999;SDS011;3540;53.242;10.408;2022-12-05T02:50:14;46.30;;;25.13;;
6999;SDS011;3540;53.242;10.408;2022-12-05T02:52:44;47.03;;;26.50;;
6999;SDS011;3540;53.242;10.408;2022-12-05T02:55:13;49.63;;;26.30;;
6999;SDS011;3540;53.242;10.408;2022-12-05T02:57:42;45.67;;;25.53;;
6999;SDS011;3540;53.242;10.408;2022-12-05T03:00:13;48.23;;;25.27;;
6999;SDS011;3540;53.242;10.408;2022-12-05T03:02:39;46.20;;;25.73;;
6999;SDS011;3540;53.242;10.408;2022-12-05T03:08:04;49.93;;;26.53;;
6999;SDS011;3540;53.242;10.408;2022-12-05T03:10:34;47.07;;;24.47;;
6999;SDS011;3540;53.242;10.408;2022-12-05T03:13:07;42.47;;;24.23;;
6999;SDS011;3540;53.242;10.408;2022-12-05T03:15:39;46.33;;;25.30;;
6999;SDS011;3540;53.242;10.408;2022-12-05T03:18:15;44.83;;;24.30;;
6999;SDS011;3540;53.242;10.408;2022-12-05T03:21:07;46.83;;;24.73;;
6999;SDS011;3540;53.242;10.408;2022-12-05T03:23:43;47.27;;;23.73;;
6999;SDS011;3540;53.242;10.408;2022-12-05T03:26:17;51.23;;;25.17;;
6999;SDS011;3540;53.242;10.408;2022-12-05T03:29:07;45.47;;;23.83;;
6999;SDS011;3540;53.242;10.408;2022-12-05T03:34:41;45.27;;;24.07;;
6999;SDS011;3540;53.242;10.408;2022-12-05T03:37:28;44.17;;;24.80;;
6999;SDS011;3540;53.242;10.408;2022-12-05T03:45:52;45.93;;;24.63;;
6999;SDS011;3540;53.242;10.408;2022-12-05T03:48:26;43.83;;;24.63;;
6999;SDS011;3540;53.242;10.408;2022-12-05T03:50:56;47.43;;;25.07;;
6999;SDS011;3540;53.242;10.408;2022-12-05T03:53:28;44.80;;;24.43;;
6999;SDS011;3540;53.242;10.408;2022-12-05T03:56:09;39.77;;;23.00;;
6999;SDS011;3540;53.242;10.408;2022-12-05T03:58:43;48.00;;;24.43;;
6999;SDS011;3540;53.242;10.408;2022-12-05T04:01:23;50.33;;;25.23;;
6999;SDS011;3540;53.242;10.408;2022-12-05T04:03:54;45.03;;;24.33;;
6999;SDS011;3540;53.242;10.408;2022-12-05T04:06:24;52.13;;;25.60;;
6999;SDS011;3540;53.242;10.408;2022-12-05T04:08:58;45.17;;;23.63;;
6999;SDS011;3540;53.242;10.408;2022-12-05T04:11:38;50.90;;;26.20;;
6999;SDS011;3540;53.242;10.408;2022-12-05T04:14:10;49.20;;;25.70;;
6999;SDS011;3540;53.242;10.408;2022-12-05T04:22:22;51.37;;;25.93;;
6999;SDS011;3540;53.242;10.408;2022-12-05T04:24:49;52.30;;;26.13;;
6999;SDS011;3540;53.242;10.408;2022-12-05T04:27:52;49.33;;;25.80;;
6999;SDS011;3540;53.242;10.408;2022-12-05T04:30:22;51.67;;;26.07;;
6999;SDS011;3540;53.242;10.408;2022-12-05T04:33:09;53.33;;;26.73;;
6999;SDS011;3540;53.242;10.408;2022-12-05T04:35:43;56.57;;;27.77;;
6999;SDS011;3540;53.242;10.408;2022-12-05T04:38:20;54.50;;;27.53;;
6999;SDS011;3540;53.242;10.408;2022-12-05T04:40:58;53.63;;;26.90;;
6999;SDS011;3540;53.242;10.408;2022-12-05T04:43:26;56.43;;;27.53;;
6999;SDS011;3540;53.242;10.408;2022-12-05T04:45:54;57.37;;;27.63;;
6999;SDS011;3540;53.242;10.408;2022-12-05T04:48:24;58.10;;;28.23;;
6999;SDS011;3540;53.242;10.408;2022-12-05T04:50:52;59.67;;;27.50;;
6999;SDS011;3540;53.242;10.408;2022-12-05T04:53:20;60.10;;;28.27;;
6999;SDS011;3540;53.242;10.408;2022-12-05T04:55:48;58.97;;;27.77;;
6999;SDS011;3540;53.242;10.408;2022-12-05T04:58:18;52.73;;;26.73;;
6999;SDS011;3540;53.242;10.408;2022-12-05T05:03:49;56.73;;;27.17;;
6999;SDS011;3540;53.242;10.408;2022-12-05T05:06:18;59.63;;;29.30;;
6999;SDS011;3540;53.242;10.408;2022-12-05T05:08:48;54.73;;;27.30;;
6999;SDS011;3540;53.242;10.408;2022-12-05T05:11:23;64.27;;;31.27;;
6999;SDS011;3540;53.242;10.408;2022-12-05T05:13:54;62.00;;;29.30;;
6999;SDS011;3540;53.242;10.408;2022-12-05T05:16:32;59.93;;;30.20;;
6999;SDS011;3540;53.242;10.408;2022-12-05T05:18:59;60.27;;;29.87;;
6999;SDS011;3540;53.242;10.408;2022-12-05T05:21:29;68.00;;;30.87;;
6999;SDS011;3540;53.242;10.408;2022-12-05T05:23:56;65.23;;;30.63;;
6999;SDS011;3540;53.242;10.408;2022-12-05T05:26:22;69.37;;;30.40;;
6999;SDS011;3540;53.242;10.408;2022-12-05T05:28:50;63.03;;;30.37;;
6999;SDS011;3540;53.242;10.408;2022-12-05T05:31:16;70.17;;;33.20;;
6999;SDS011;3540;53.242;10.408;2022-12-05T05:33:43;66.07;;;30.10;;
6999;SDS011;3540;53.242;10.408;2022-12-05T05:36:12;68.27;;;31.13;;
6999;SDS011;3540;53.242;10.408;2022-12-05T05:38:39;71.70;;;31.20;;
6999;SDS011;3540;53.242;10.408;2022-12-05T05:41:17;64.93;;;30.73;;
6999;SDS011;3540;53.242;10.408;2022-12-05T05:43:44;67.93;;;31.43;;
6999;SDS011;3540;53.242;10.408;2022-12-05T05:46:11;67.97;;;31.70;;
6999;SDS011;3540;53.242;10.408;2022-12-05T05:48:37;71.93;;;30.60;;
6999;SDS011;3540;53.242;10.408;2022-12-05T05:51:04;73.93;;;31.67;;
6999;SDS011;3540;53.242;10.408;2022-12-05T05:53:31;69.27;;;31.67;;
6999;SDS011;3540;53.242;10.408;2022-12-05T05:56:04;76.03;;;33.10;;
6999;SDS011;3540;53.242;10.408;2022-12-05T05:58:31;77.03;;;33.20;;
6999;SDS011;3540;53.242;10.408;2022-12-05T06:03:28;83.90;;;34.53;;
6999;SDS011;3540;53.242;10.408;2022-12-05T06:05:57;82.20;;;33.87;;
6999;SDS011;3540;53.242;10.408;2022-12-05T06:08:24;81.13;;;33.63;;
6999;SDS011;3540;53.242;10.408;2022-12-05T06:10:50;82.63;;;35.57;;
6999;SDS011;3540;53.242;10.408;2022-12-05T06:13:15;90.60;;;36.20;;
6999;SDS011;3540;53.242;10.408;2022-12-05T06:15:41;85.93;;;35.10;;
6999;SDS011;3540;53.242;10.408;2022-12-05T06:18:07;87.73;;;36.20;;
6999;SDS011;3540;53.242;10.408;2022-12-05T06:20:32;85.23;;;34.40;;
6999;SDS011;3540;53.242;10.408;2022-12-05T06:22:58;94.67;;;35.73;;
6999;SDS011;3540;53.242;10.408;2022-12-05T06:25:24;92.63;;;35.40;;
6999;SDS011;3540;53.242;10.408;2022-12-05T06:27:49;91.73;;;34.97;;
6999;SDS011;3540;53.242;10.408;2022-12-05T06:30:15;94.30;;;35.67;;
6999;SDS011;3540;53.242;10.408;2022-12-05T06:32:41;102.37;;;36.43;;
6999;SDS011;3540;53.242;10.408;2022-12-05T06:35:07;92.40;;;35.37;;
6999;SDS011;3540;53.242;10.408;2022-12-05T06:37:39;93.73;;;36.47;;
6999;SDS011;3540;53.242;10.408;2022-12-05T06:40:09;94.57;;;36.07;;
6999;SDS011;3540;53.242;10.408;2022-12-05T06:42:36;92.67;;;35.07;;
6999;SDS011;3540;53.242;10.408;2022-12-05T06:45:02;99.43;;;36.37;;
6999;SDS011;3540;53.242;10.408;2022-12-05T06:47:29;91.97;;;34.73;;
6999;SDS011;3540;53.242;10.408;2022-12-05T06:49:55;94.80;;;35.07;;
6999;SDS011;3540;53.242;10.408;2022-12-05T06:52:20;100.77;;;35.17;;
6999;SDS011;3540;53.242;10.408;2022-12-05T06:54:46;90.07;;;33.50;;
6999;SDS011;3540;53.242;10.408;2022-12-05T06:57:12;102.83;;;34.63;;
6999;SDS011;3540;53.242;10.408;2022-12-05T06:59:38;97.33;;;34.10;;
6999;SDS011;3540;53.242;10.408;2022-12-05T07:02:04;92.30;;;32.90;;
6999;SDS011;3540;53.242;10.408;2022-12-05T07:04:32;95.87;;;33.90;;
6999;SDS011;3540;53.242;10.408;2022-12-05T07:06:57;92.97;;;32.73;;
6999;SDS011;3540;53.242;10.408;2022-12-05T07:09:24;91.73;;;31.67;;
6999;SDS011;3540;53.242;10.408;2022-12-05T07:12:08;91.63;;;32.43;;
6999;SDS011;3540;53.242;10.408;2022-12-05T07:14:35;78.60;;;30.13;;
6999;SDS011;3540;53.242;10.408;2022-12-05T07:17:00;88.27;;;30.57;;
6999;SDS011;3540;53.242;10.408;2022-12-05T07:19:26;84.70;;;30.23;;
6999;SDS011;3540;53.242;10.408;2022-12-05T07:21:51;90.47;;;29.93;;
6999;SDS011;3540;53.242;10.408;2022-12-05T07:24:17;86.00;;;29.83;;
6999;SDS011;3540;53.242;10.408;2022-12-05T07:26:43;78.43;;;28.83;;
6999;SDS011;3540;53.242;10.408;2022-12-05T07:29:08;89.27;;;29.57;;
6999;SDS011;3540;53.242;10.408;2022-12-05T07:31:34;70.80;;;27.60;;
6999;SDS011;3540;53.242;10.408;2022-12-05T07:34:01;71.50;;;26.93;;
6999;SDS011;3540;53.242;10.408;2022-12-05T07:36:27;68.43;;;26.27;;
6999;SDS011;3540;53.242;10.408;2022-12-05T07:38:56;71.40;;;26.80;;
6999;SDS011;3540;53.242;10.408;2022-12-05T07:41:30;68.70;;;25.97;;
6999;SDS011;3540;53.242;10.408;2022-12-05T07:43:57;72.43;;;25.23;;
6999;SDS011;3540;53.242;10.408;2022-12-05T07:46:24;63.33;;;25.23;;
6999;SDS011;3540;53.242;10.408;2022-12-05T07:48:51;65.00;;;26.67;;
6999;SDS011;3540;53.242;10.408;2022-12-05T07:51:17;68.03;;;26.87;;
6999;SDS011;3540;53.242;10.408;2022-12-05T07:53:44;59.10;;;26.97;;
6999;SDS011;3540;53.242;10.408;2022-12-05T07:56:11;71.40;;;27.47;;
6999;SDS011;3540;53.242;10.408;2022-12-05T07:58:40;67.23;;;28.07;;
6999;SDS011;3540;53.242;10.408;2022-12-05T08:03:40;53.27;;;23.43;;
6999;SDS011;3540;53.242;10.408;2022-12-05T08:06:07;53.03;;;23.07;;
6999;SDS011;3540;53.242;10.408;2022-12-05T08:08:34;48.90;;;20.80;;
6999;SDS011;3540;53.242;10.408;2022-12-05T08:11:02;56.43;;;22.80;;
6999;SDS011;3540;53.242;10.408;2022-12-05T08:13:32;57.27;;;23.00;;
6999;SDS011;3540;53.242;10.408;2022-12-05T08:16:05;55.93;;;23.97;;
6999;SDS011;3540;53.242;10.408;2022-12-05T08:18:33;56.00;;;24.47;;
6999;SDS011;3540;53.242;10.408;2022-12-05T08:21:00;58.37;;;23.63;;
6999;SDS011;3540;53.242;10.408;2022-12-05T08:23:27;57.63;;;25.10;;
6999;SDS011;3540;53.242;10.408;2022-12-05T08:25:54;65.70;;;26.80;;
6999;SDS011;3540;53.242;10.408;2022-12-05T08:28:20;61.87;;;26.87;;
6999;SDS011;3540;53.242;10.408;2022-12-05T08:30:46;58.37;;;25.90;;
6999;SDS011;3540;53.242;10.408;2022-12-05T08:33:11;61.40;;;24.83;;
6999;SDS011;3540;53.242;10.408;2022-12-05T08:35:37;62.30;;;26.73;;
6999;SDS011;3540;53.242;10.408;2022-12-05T08:38:03;68.73;;;26.23;;
6999;SDS011;3540;53.242;10.408;2022-12-05T08:40:28;59.10;;;24.33;;
6999;SDS011;3540;53.242;10.408;2022-12-05T08:42:55;56.67;;;24.47;;
6999;SDS011;3540;53.242;10.408;2022-12-05T08:45:21;59.20;;;24.40;;
6999;SDS011;3540;53.242;10.408;2022-12-05T08:47:47;64.57;;;25.87;;
6999;SDS011;3540;53.242;10.408;2022-12-05T08:50:13;65.13;;;24.47;;
6999;SDS011;3540;53.242;10.408;2022-12-05T08:52:38;55.53;;;24.20;;
6999;SDS011;3540;53.242;10.408;2022-12-05T08:55:04;60.13;;;24.97;;
6999;SDS011;3540;53.242;10.408;2022-12-05T08:57:30;59.97;;;24.93;;
6999;SDS011;3540;53.242;10.408;2022-12-05T08:59:56;57.03;;;23.20;;
6999;SDS011;3540;53.242;10.408;2022-12-05T09:02:22;62.77;;;24.50;;
6999;SDS011;3540;53.242;10.408;2022-12-05T09:04:49;57.13;;;23.30;;
6999;SDS011;3540;53.242;10.408;2022-12-05T09:07:15;54.37;;;22.70;;
6999;SDS011;3540;53.242;10.408;2022-12-05T09:09:42;54.13;;;22.17;;
6999;SDS011;3540;53.242;10.408;2022-12-05T09:12:08;53.60;;;22.13;;
6999;SDS011;3540;53.242;10.408;2022-12-05T09:14:34;57.73;;;22.70;;
6999;SDS011;3540;53.242;10.408;2022-12-05T09:16:59;53.93;;;22.63;;
6999;SDS011;3540;53.242;10.408;2022-12-05T09:19:25;53.90;;;21.60;;
6999;SDS011;3540;53.242;10.408;2022-12-05T09:21:52;50.40;;;23.00;;
6999;SDS011;3540;53.242;10.408;2022-12-05T09:24:19;49.80;;;22.30;;
6999;SDS011;3540;53.242;10.408;2022-12-05T09:26:45;48.23;;;21.13;;
6999;SDS011;3540;53.242;10.408;2022-12-05T09:29:11;47.33;;;21.07;;
6999;SDS011;3540;53.242;10.408;2022-12-05T09:31:37;55.03;;;21.77;;
6999;SDS011;3540;53.242;10.408;2022-12-05T09:34:06;47.20;;;21.40;;
6999;SDS011;3540;53.242;10.408;2022-12-05T09:36:32;45.73;;;20.07;;
6999;SDS011;3540;53.242;10.408;2022-12-05T09:38:58;45.97;;;19.50;;
6999;SDS011;3540;53.242;10.408;2022-12-05T09:49:41;49.90;;;20.73;;
6999;SDS011;3540;53.242;10.408;2022-12-05T09:52:23;43.97;;;20.83;;
6999;SDS011;3540;53.242;10.408;2022-12-05T09:55:02;44.10;;;19.13;;
6999;SDS011;3540;53.242;10.408;2022-12-05T09:57:34;47.97;;;19.57;;
6999;SDS011;3540;53.242;10.408;2022-12-05T10:00:03;44.27;;;18.53;;
6999;SDS011;3540;53.242;10.408;2022-12-05T10:08:01;49.33;;;20.90;;
6999;SDS011;3540;53.242;10.408;2022-12-05T10:10:45;42.97;;;19.30;;
6999;SDS011;3540;53.242;10.408;2022-12-05T10:16:16;44.47;;;18.70;;
6999;SDS011;3540;53.242;10.408;2022-12-05T10:18:51;42.23;;;18.30;;
6999;SDS011;3540;53.242;10.408;2022-12-05T10:21:24;43.43;;;19.10;;
6999;SDS011;3540;53.242;10.408;2022-12-05T10:23:59;41.90;;;19.50;;
6999;SDS011;3540;53.242;10.408;2022-12-05T10:26:28;44.30;;;18.63;;
6999;SDS011;3540;53.242;10.408;2022-12-05T10:34:33;41.00;;;16.90;;
6999;SDS011;3540;53.242;10.408;2022-12-05T10:37:36;40.80;;;18.00;;
6999;SDS011;3540;53.242;10.408;2022-12-05T10:39:55;40.50;;;17.87;;
6999;SDS011;3540;53.242;10.408;2022-12-05T10:42:29;41.60;;;18.73;;
6999;SDS011;3540;53.242;10.408;2022-12-05T10:44:59;41.43;;;17.57;;
6999;SDS011;3540;53.242;10.408;2022-12-05T10:47:29;42.97;;;18.17;;
6999;SDS011;3540;53.242;10.408;2022-12-05T10:49:56;42.70;;;17.67;;
6999;SDS011;3540;53.242;10.408;2022-12-05T10:52:26;41.27;;;18.27;;
6999;SDS011;3540;53.242;10.408;2022-12-05T10:54:55;43.90;;;17.93;;
6999;SDS011;3540;53.242;10.408;2022-12-05T10:57:25;39.90;;;17.43;;
6999;SDS011;3540;53.242;10.408;2022-12-05T10:59:54;39.20;;;18.40;;
6999;SDS011;3540;53.242;10.408;2022-12-05T11:02:24;39.53;;;17.60;;
6999;SDS011;3540;53.242;10.408;2022-12-05T11:04:53;45.57;;;18.57;;
6999;SDS011;3540;53.242;10.408;2022-12-05T11:09:57;38.10;;;17.57;;
6999;SDS011;3540;53.242;10.408;2022-12-05T11:12:28;39.40;;;17.87;;
6999;SDS011;3540;53.242;10.408;2022-12-05T11:14:55;41.47;;;18.00;;
6999;SDS011;3540;53.242;10.408;2022-12-05T11:17:30;38.97;;;17.10;;
6999;SDS011;3540;53.242;10.408;2022-12-05T11:19:56;38.17;;;16.87;;
6999;SDS011;3540;53.242;10.408;2022-12-05T11:22:32;39.57;;;17.63;;
6999;SDS011;3540;53.242;10.408;2022-12-05T11:24:58;34.53;;;16.57;;
6999;SDS011;3540;53.242;10.408;2022-12-05T11:27:29;39.10;;;17.10;;
6999;SDS011;3540;53.242;10.408;2022-12-05T11:32:29;38.70;;;17.13;;
6999;SDS011;3540;53.242;10.408;2022-12-05T11:37:39;38.10;;;17.77;;
6999;SDS011;3540;53.242;10.408;2022-12-05T12:12:05;33.40;;;15.50;;
6999;SDS011;3540;53.242;10.408;2022-12-05T12:20:20;31.17;;;14.60;;
6999;SDS011;3540;53.242;10.408;2022-12-05T12:25:21;35.40;;;16.87;;
6999;SDS011;3540;53.242;10.408;2022-12-05T12:33:32;37.20;;;17.53;;
6999;SDS011;3540;53.242;10.408;2022-12-05T12:41:53;29.83;;;14.70;;
6999;SDS011;3540;53.242;10.408;2022-12-05T12:47:00;32.27;;;15.60;;
6999;SDS011;3540;53.242;10.408;2022-12-05T12:52:11;29.50;;;13.63;;
6999;SDS011;3540;53.242;10.408;2022-12-05T12:57:38;22.13;;;12.83;;
6999;SDS011;3540;53.242;10.408;2022-12-05T13:00:53;23.73;;;13.40;;
6999;SDS011;3540;53.242;10.408;2022-12-05T13:03:46;25.03;;;12.40;;
6999;SDS011;3540;53.242;10.408;2022-12-05T13:06:28;23.73;;;12.67;;
6999;SDS011;3540;53.242;10.408;2022-12-05T13:09:17;28.63;;;13.33;;
6999;SDS011;3540;53.242;10.408;2022-12-05T13:11:48;27.37;;;13.67;;
6999;SDS011;3540;53.242;10.408;2022-12-05T13:14:16;23.70;;;12.40;;
6999;SDS011;3540;53.242;10.408;2022-12-05T13:16:48;22.73;;;12.33;;
6999;SDS011;3540;53.242;10.408;2022-12-05T13:19:27;23.97;;;12.97;;
6999;SDS011;3540;53.242;10.408;2022-12-05T13:22:01;24.80;;;12.13;;
6999;SDS011;3540;53.242;10.408;2022-12-05T13:24:28;23.23;;;11.63;;
6999;SDS011;3540;53.242;10.408;2022-12-05T13:26:58;27.37;;;12.47;;
6999;SDS011;3540;53.242;10.408;2022-12-05T13:29:30;36.17;;;17.60;;
6999;SDS011;3540;53.242;10.408;2022-12-05T13:32:04;27.00;;;14.23;;
6999;SDS011;3540;53.242;10.408;2022-12-05T13:36:59;18.27;;;11.10;;
6999;SDS011;3540;53.242;10.408;2022-12-05T13:39:53;20.43;;;11.20;;
6999;SDS011;3540;53.242;10.408;2022-12-05T13:42:39;21.63;;;11.73;;
6999;SDS011;3540;53.242;10.408;2022-12-05T13:52:57;20.20;;;11.77;;
6999;SDS011;3540;53.242;10.408;2022-12-05T14:04:01;17.67;;;10.83;;
6999;SDS011;3540;53.242;10.408;2022-12-05T14:09:02;20.83;;;10.87;;
6999;SDS011;3540;53.242;10.408;2022-12-05T14:17:29;22.33;;;11.27;;
6999;SDS011;3540;53.242;10.408;2022-12-05T14:20:21;21.87;;;12.30;;
6999;SDS011;3540;53.242;10.408;2022-12-05T14:33:35;21.33;;;12.17;;
6999;SDS011;3540;53.242;10.408;2022-12-05T14:36:03;23.40;;;12.50;;
6999;SDS011;3540;53.242;10.408;2022-12-05T14:38:32;24.10;;;12.27;;
6999;SDS011;3540;53.242;10.408;2022-12-05T14:41:14;19.40;;;12.20;;
6999;SDS011;3540;53.242;10.408;2022-12-05T14:43:50;19.53;;;11.97;;
6999;SDS011;3540;53.242;10.408;2022-12-05T14:46:23;18.03;;;11.20;;
6999;SDS011;3540;53.242;10.408;2022-12-05T14:48:51;21.30;;;11.90;;
6999;SDS011;3540;53.242;10.408;2022-12-05T14:54:06;21.90;;;11.70;;
6999;SDS011;3540;53.242;10.408;2022-12-05T14:56:45;20.30;;;12.07;;
6999;SDS011;3540;53.242;10.408;2022-12-05T14:59:33;20.53;;;12.37;;
6999;SDS011;3540;53.242;10.408;2022-12-05T15:07:28;21.50;;;12.33;;
6999;SDS011;3540;53.242;10.408;2022-12-05T15:10:04;18.57;;;11.53;;
6999;SDS011;3540;53.242;10.408;2022-12-05T15:15:14;16.93;;;10.60;;
6999;SDS011;3540;53.242;10.408;2022-12-05T15:31:26;20.50;;;12.17;;
6999;SDS011;3540;53.242;10.408;2022-12-05T15:33:54;20.13;;;11.90;;
6999;SDS011;3540;53.242;10.408;2022-12-05T15:36:25;17.90;;;11.73;;
6999;SDS011;3540;53.242;10.408;2022-12-05T15:39:01;19.60;;;12.83;;
6999;SDS011;3540;53.242;10.408;2022-12-05T15:41:28;20.83;;;12.70;;
6999;SDS011;3540;53.242;10.408;2022-12-05T15:43:54;22.90;;;13.53;;
6999;SDS011;3540;53.242;10.408;2022-12-05T15:46:22;23.23;;;12.20;;
6999;SDS011;3540;53.242;10.408;2022-12-05T15:48:50;23.57;;;13.00;;
6999;SDS011;3540;53.242;10.408;2022-12-05T15:51:17;24.87;;;13.10;;
6999;SDS011;3540;53.242;10.408;2022-12-05T15:53:48;22.93;;;12.83;;
6999;SDS011;3540;53.242;10.408;2022-12-05T15:56:28;19.77;;;12.43;;
6999;SDS011;3540;53.242;10.408;2022-12-05T16:01:45;22.17;;;12.00;;
6999;SDS011;3540;53.242;10.408;2022-12-05T16:06:47;25.50;;;12.90;;
6999;SDS011;3540;53.242;10.408;2022-12-05T16:09:17;19.20;;;10.93;;
6999;SDS011;3540;53.242;10.408;2022-12-05T16:11:55;20.50;;;12.07;;
6999;SDS011;3540;53.242;10.408;2022-12-05T16:14:24;21.60;;;12.17;;
6999;SDS011;3540;53.242;10.408;2022-12-05T16:16:58;20.70;;;12.17;;
6999;SDS011;3540;53.242;10.408;2022-12-05T16:19:26;20.57;;;11.33;;
6999;SDS011;3540;53.242;10.408;2022-12-05T16:22:06;18.90;;;12.87;;
6999;SDS011;3540;53.242;10.408;2022-12-05T16:24:38;21.03;;;12.00;;
6999;SDS011;3540;53.242;10.408;2022-12-05T16:27:12;21.47;;;12.20;;
6999;SDS011;3540;53.242;10.408;2022-12-05T16:29:41;20.73;;;11.67;;
6999;SDS011;3540;53.242;10.408;2022-12-05T16:32:27;21.60;;;11.80;;
6999;SDS011;3540;53.242;10.408;2022-12-05T16:34:52;18.60;;;11.90;;
6999;SDS011;3540;53.242;10.408;2022-12-05T16:37:21;19.17;;;11.77;;
6999;SDS011;3540;53.242;10.408;2022-12-05T16:39:49;19.57;;;11.00;;
6999;SDS011;3540;53.242;10.408;2022-12-05T16:42:19;19.50;;;11.97;;
6999;SDS011;3540;53.242;10.408;2022-12-05T16:44:52;16.90;;;10.93;;
6999;SDS011;3540;53.242;10.408;2022-12-05T16:47:22;17.30;;;10.73;;
6999;SDS011;3540;53.242;10.408;2022-12-05T16:49:49;20.77;;;11.30;;
6999;SDS011;3540;53.242;10.408;2022-12-05T16:52:15;15.47;;;9.93;;
6999;SDS011;3540;53.242;10.408;2022-12-05T16:54:41;19.50;;;12.17;;
6999;SDS011;3540;53.242;10.408;2022-12-05T16:57:14;19.90;;;12.07;;
6999;SDS011;3540;53.242;10.408;2022-12-05T16:59:41;22.00;;;11.97;;
6999;SDS011;3540;53.242;10.408;2022-12-05T17:02:11;22.20;;;12.77;;
6999;SDS011;3540;53.242;10.408;2022-12-05T17:04:39;19.50;;;12.33;;
6999;SDS011;3540;53.242;10.408;2022-12-05T17:07:05;21.73;;;12.47;;
6999;SDS011;3540;53.242;10.408;2022-12-05T17:09:31;22.43;;;13.70;;
6999;SDS011;3540;53.242;10.408;2022-12-05T17:12:04;21.50;;;13.13;;
6999;SDS011;3540;53.242;10.408;2022-12-05T17:14:37;23.40;;;13.80;;
6999;SDS011;3540;53.242;10.408;2022-12-05T17:17:04;24.33;;;14.07;;
6999;SDS011;3540;53.242;10.408;2022-12-05T17:19:36;21.30;;;12.77;;
6999;SDS011;3540;53.242;10.408;2022-12-05T17:22:03;22.83;;;13.07;;
6999;SDS011;3540;53.242;10.408;2022-12-05T17:24:30;18.57;;;11.93;;
6999;SDS011;3540;53.242;10.408;2022-12-05T17:26:56;21.87;;;12.87;;
6999;SDS011;3540;53.242;10.408;2022-12-05T17:29:22;22.27;;;13.63;;
6999;SDS011;3540;53.242;10.408;2022-12-05T17:31:47;21.60;;;13.37;;
6999;SDS011;3540;53.242;10.408;2022-12-05T17:34:14;20.77;;;12.77;;
6999;SDS011;3540;53.242;10.408;2022-12-05T17:36:41;23.07;;;13.40;;
6999;SDS011;3540;53.242;10.408;2022-12-05T17:39:08;23.40;;;13.67;;
6999;SDS011;3540;53.242;10.408;2022-12-05T17:41:34;26.37;;;15.13;;
6999;SDS011;3540;53.242;10.408;2022-12-05T17:44:00;29.10;;;15.77;;
6999;SDS011;3540;53.242;10.408;2022-12-05T17:46:26;29.00;;;15.37;;
6999;SDS011;3540;53.242;10.408;2022-12-05T17:48:52;29.93;;;15.63;;
6999;SDS011;3540;53.242;10.408;2022-12-05T17:51:18;27.07;;;14.83;;
6999;SDS011;3540;53.242;10.408;2022-12-05T17:53:44;27.40;;;14.97;;
6999;SDS011;3540;53.242;10.408;2022-12-05T17:56:11;25.67;;;15.33;;
6999;SDS011;3540;53.242;10.408;2022-12-05T17:58:38;27.77;;;16.20;;
6999;SDS011;3540;53.242;10.408;2022-12-05T18:01:04;25.27;;;15.37;;
6999;SDS011;3540;53.242;10.408;2022-12-05T18:03:29;25.00;;;15.30;;
6999;SDS011;3540;53.242;10.408;2022-12-05T18:05:55;25.20;;;14.20;;
6999;SDS011;3540;53.242;10.408;2022-12-05T18:08:21;24.53;;;15.33;;
6999;SDS011;3540;53.242;10.408;2022-12-05T18:10:48;25.83;;;14.73;;
6999;SDS011;3540;53.242;10.408;2022-12-05T18:13:15;24.93;;;15.03;;
6999;SDS011;3540;53.242;10.408;2022-12-05T18:15:41;25.67;;;14.93;;
6999;SDS011;3540;53.242;10.408;2022-12-05T18:18:08;24.03;;;14.83;;